Time;durP1;ratioP1;P1;durP2;ratioP2;P2;SDS_P1;SDS_P2;PMS_P1;PMS_P2;Temp;Humidity;BMP_temperature;BMP_pressure;BME280_temperature;BME280_humidity;BME280_pressure;Samples;Min_cycle;Max_cycle;Signal;HPM_P1;HPM_P2
2024/01/07 00:03:26;;;;;;;31.30;16.30;;;;;;;-0.51;100.00;100128.23;178319;1256;46106;-83
2024/01/07 00:07:29;;;;;;;25.00;15.90;;;;;;;-0.49;100.00;100131.61;178315;1256;45970;-84
2024/01/07 00:11:33;;;;;;;29.80;16.30;;;;;;;-0.49;100.00;100134.42;177659;1261;46023;-84
2024/01/07 00:15:36;;;;;;;25.60;16.50;;;;;;;-0.49;100.00;100134.25;177812;1255;59419;-82
2024/01/07 00:19:40;;;;;;;23.40;16.00;;;;;;;-0.54;100.00;100140.87;178009;1257;45961;-82
2024/01/07 00:23:43;;;;;;;25.20;16.20;;;;;;;-0.62;100.00;100140.84;177894;1259;46092;-83
2024/01/07 00:27:46;;;;;;;26.90;15.40;;;;;;;-0.66;100.00;100138.38;178007;1256;46036;-84
2024/01/07 00:31:50;;;;;;;33.20;19.40;;;;;;;-0.69;100.00;100143.36;178396;1260;46148;-83
2024/01/07 00:35:53;;;;;;;25.10;12.50;;;;;;;-0.68;100.00;100143.31;177559;1262;58245;-83
2024/01/07 00:39:56;;;;;;;22.40;13.10;;;;;;;-0.67;100.00;100147.45;177841;1256;46064;-82
2024/01/07 00:44:00;;;;;;;21.50;13.30;;;;;;;-0.69;100.00;100148.05;177982;1258;46126;-83
2024/01/07 00:48:03;;;;;;;18.70;11.20;;;;;;;-0.69;100.00;100145.11;177937;1257;45116;-84
2024/01/07 00:52:07;;;;;;;22.00;12.30;;;;;;;-0.69;100.00;100143.54;178848;1257;46072;-84
2024/01/07 00:56:10;;;;;;;21.70;14.50;;;;;;;-0.67;100.00;100155.66;178198;1258;60103;-83
2024/01/07 01:00:14;;;;;;;19.90;11.80;;;;;;;-0.65;100.00;100154.55;177521;1257;45975;-84
2024/01/07 01:04:17;;;;;;;21.80;13.00;;;;;;;-0.62;100.00;100158.06;177623;1260;45984;-83
2024/01/07 01:08:20;;;;;;;20.80;13.00;;;;;;;-0.62;100.00;100162.58;177768;1257;46001;-84
2024/01/07 01:12:23;;;;;;;18.80;13.90;;;;;;;-0.64;100.00;100165.80;178301;1257;45896;-81
2024/01/07 01:16:26;;;;;;;27.00;18.20;;;;;;;-0.67;100.00;100166.79;178802;1257;57911;-82
2024/01/07 01:20:29;;;;;;;19.60;11.20;;;;;;;-0.65;100.00;100166.89;177457;1257;46078;-82
2024/01/07 01:24:32;;;;;;;17.00;10.80;;;;;;;-0.64;100.00;100164.60;178376;1257;44883;-81
2024/01/07 01:28:36;;;;;;;23.30;15.00;;;;;;;-0.61;100.00;100171.27;178506;1260;46109;-82
2024/01/07 01:32:39;;;;;;;19.70;12.10;;;;;;;-0.65;100.00;100175.94;178663;1257;46069;-82
2024/01/07 01:36:43;;;;;;;30.00;14.90;;;;;;;-0.65;100.00;100177.53;178026;1257;58350;-82
2024/01/07 01:40:53;;;;;;;20.00;13.30;;;;;;;-0.64;100.00;100175.75;177352;1260;46234;-82
2024/01/07 01:44:59;;;;;;;25.50;12.80;;;;;;;-0.70;100.00;100179.98;178365;1257;45975;-82
2024/01/07 01:49:02;;;;;;;19.40;11.90;;;;;;;-0.77;100.00;100178.64;178589;1257;46051;-82
2024/01/07 01:53:06;;;;;;;16.60;12.20;;;;;;;-0.80;100.00;100178.93;178532;1257;46023;-81
2024/01/07 01:57:16;;;;;;;20.40;11.40;;;;;;;-0.81;100.00;100180.88;177263;1257;59979;-82
2024/01/07 02:01:19;;;;;;;23.70;12.50;;;;;;;-0.79;100.00;100182.40;178093;1257;44794;-82
2024/01/07 02:05:23;;;;;;;22.40;15.20;;;;;;;-0.79;99.17;100183.96;177742;1257;46081;-83
2024/01/07 02:09:26;;;;;;;19.90;12.30;;;;;;;-0.82;98.50;100183.70;177683;1260;46109;-82
2024/01/07 02:13:29;;;;;;;27.00;16.60;;;;;;;-0.86;97.71;100191.16;178162;1257;46114;-83
2024/01/07 02:17:32;;;;;;;20.70;13.80;;;;;;;-0.87;98.51;100190.32;177762;1257;60081;-83
2024/01/07 02:21:36;;;;;;;18.50;15.00;;;;;;;-0.88;100.00;100198.90;177618;1259;46109;-83
2024/01/07 02:25:39;;;;;;;16.70;13.60;;;;;;;-0.96;100.00;100204.23;178090;1260;46971;-81
2024/01/07 02:29:42;;;;;;;28.00;17.40;;;;;;;-1.00;100.00;100201.21;178175;1260;46168;-82
2024/01/07 02:33:45;;;;;;;15.80;12.50;;;;;;;-1.01;100.00;100208.20;178193;1257;45857;-81
2024/01/07 02:37:49;;;;;;;16.40;12.60;;;;;;;-1.08;99.69;100212.80;177433;1257;59056;-82
2024/01/07 02:41:52;;;;;;;21.30;12.40;;;;;;;-1.13;99.18;100211.23;178240;1256;45989;-83
2024/01/07 02:45:55;;;;;;;24.60;13.30;;;;;;;-1.14;99.85;100207.96;178271;1257;45986;-82
2024/01/07 02:49:58;;;;;;;16.30;12.40;;;;;;;-1.12;99.24;100213.33;178899;1258;46135;-83
2024/01/07 02:54:02;;;;;;;20.40;11.70;;;;;;;-1.12;97.09;100222.00;178319;1257;46475;-83
2024/01/07 02:58:05;;;;;;;15.70;10.70;;;;;;;-1.17;95.24;100225.14;178565;1256;60251;-82
2024/01/07 03:02:08;;;;;;;21.80;12.70;;;;;;;-1.24;94.81;100225.54;178207;1260;44841;-83
2024/01/07 03:06:11;;;;;;;20.90;13.20;;;;;;;-1.22;94.94;100220.60;178687;1257;46051;-82
2024/01/07 03:10:14;;;;;;;17.70;12.00;;;;;;;-1.21;94.57;100221.08;177842;1257;46025;-82
2024/01/07 03:14:20;;;;;;;22.40;11.40;;;;;;;-1.21;94.80;100226.48;178667;1260;46006;-83
2024/01/07 03:18:23;;;;;;;16.60;12.60;;;;;;;-1.26;93.59;100230.67;178076;1257;59513;-79
2024/01/07 03:22:26;;;;;;;16.90;12.70;;;;;;;-1.34;93.70;100230.39;177861;1256;46117;-79
2024/01/07 03:26:33;;;;;;;20.60;11.70;;;;;;;-1.38;94.31;100230.35;177235;1257;46291;-79
2024/01/07 03:30:37;;;;;;;17.70;13.20;;;;;;;-1.43;95.95;100229.30;178265;1257;46010;-82
2024/01/07 03:34:40;;;;;;;19.20;11.90;;;;;;;-1.50;98.95;100234.40;177645;1257;46117;-82
2024/01/07 03:38:44;;;;;;;19.80;11.50;;;;;;;-1.52;100.00;100235.69;177876;1256;57732;-83
2024/01/07 03:42:47;;;;;;;18.40;12.30;;;;;;;-1.57;100.00;100238.95;177759;1256;46133;-82
2024/01/07 03:46:51;;;;;;;15.30;11.80;;;;;;;-1.64;100.00;100237.95;177536;1256;46226;-82
2024/01/07 03:50:54;;;;;;;18.60;14.10;;;;;;;-1.64;100.00;100239.89;178184;1256;45112;-82
2024/01/07 03:54:57;;;;;;;17.30;12.80;;;;;;;-1.64;100.00;100245.63;177583;1257;46060;-83
2024/01/07 03:59:00;;;;;;;20.80;13.80;;;;;;;-1.65;100.00;100244.97;177427;1260;59500;-81
2024/01/07 04:03:03;;;;;;;17.30;11.30;;;;;;;-1.70;100.00;100258.34;177889;1256;46026;-83
2024/01/07 04:07:07;;;;;;;25.20;13.30;;;;;;;-1.77;100.00;100258.88;177327;1256;46226;-83
2024/01/07 04:11:10;;;;;;;18.40;10.70;;;;;;;-1.75;100.00;100258.65;177707;1258;46028;-82
2024/01/07 04:15:13;;;;;;;21.10;13.60;;;;;;;-1.78;100.00;100262.23;177822;1256;46067;-82
2024/01/07 04:19:16;;;;;;;15.30;11.20;;;;;;;-1.81;100.00;100268.58;177557;1256;59489;-82
2024/01/07 04:23:20;;;;;;;18.60;11.90;;;;;;;-1.77;100.00;100272.10;178481;1256;46063;-82
2024/01/07 04:27:24;;;;;;;15.10;11.20;;;;;;;-1.75;100.00;100270.48;178755;1257;46117;-82
2024/01/07 04:31:28;;;;;;;18.40;11.20;;;;;;;-1.77;100.00;100269.48;178160;1256;46257;-82
2024/01/07 04:35:31;;;;;;;16.70;10.50;;;;;;;-1.77;100.00;100279.23;178299;1256;46153;-81
2024/01/07 04:39:34;;;;;;;13.70;10.60;;;;;;;-1.77;100.00;100272.29;178794;1256;57234;-83
2024/01/07 04:43:37;;;;;;;14.40;10.20;;;;;;;-1.74;100.00;100283.84;178467;1256;46053;-82
2024/01/07 04:47:40;;;;;;;16.00;9.90;;;;;;;-1.71;100.00;100280.28;179226;1256;46060;-82
2024/01/07 04:51:43;;;;;;;14.60;9.00;;;;;;;-1.67;100.00;100281.36;178922;1256;46216;-83
2024/01/07 04:55:46;;;;;;;16.70;12.70;;;;;;;-1.61;100.00;100285.70;178469;1256;45968;-83
2024/01/07 04:59:50;;;;;;;12.50;9.30;;;;;;;-1.57;100.00;100290.97;178058;1256;58638;-83
2024/01/07 05:03:53;;;;;;;17.10;9.80;;;;;;;-1.53;100.00;100293.81;178299;1256;46076;-81
2024/01/07 05:07:59;;;;;;;18.30;11.40;;;;;;;-1.52;100.00;100300.73;177780;1256;45997;-82
2024/01/07 05:12:02;;;;;;;16.50;9.80;;;;;;;-1.57;99.48;100304.89;178332;1256;222555;-82
2024/01/07 05:16:06;;;;;;;18.40;12.10;;;;;;;-1.62;97.53;100308.33;177692;1256;45896;-82
2024/01/07 05:20:10;;;;;;;22.80;11.80;;;;;;;-1.62;96.34;100309.90;177719;1257;58997;-82
2024/01/07 05:24:13;;;;;;;16.40;10.70;;;;;;;-1.61;96.62;100312.98;178414;1256;45947;-81
2024/01/07 05:28:19;;;;;;;13.60;10.40;;;;;;;-1.60;95.27;100312.10;178419;1256;46160;-82
2024/01/07 05:32:23;;;;;;;21.00;14.80;;;;;;;-1.59;94.79;100320.58;178818;1256;45914;-82
2024/01/07 05:36:26;;;;;;;14.40;9.80;;;;;;;-1.60;94.62;100322.69;178327;1256;45918;-81
2024/01/07 05:40:29;;;;;;;15.70;11.10;;;;;;;-1.57;94.97;100320.54;178506;1256;58267;-82
2024/01/07 05:44:32;;;;;;;14.80;9.70;;;;;;;-1.53;95.71;100326.35;177583;1256;46284;-82
2024/01/07 05:48:47;;;;;;;15.80;10.00;;;;;;;-1.50;95.00;100330.41;178183;1257;44455;-82
2024/01/07 05:52:51;;;;;;;14.00;9.20;;;;;;;-1.55;94.17;100339.61;178564;1256;45988;-82
2024/01/07 05:56:54;;;;;;;20.80;12.20;;;;;;;-1.52;94.45;100335.70;177575;1256;46111;-81
2024/01/07 06:00:57;;;;;;;16.40;12.30;;;;;;;-1.56;93.26;100342.95;177700;1256;59563;-81
2024/01/07 06:05:02;;;;;;;14.80;10.00;;;;;;;-1.58;93.83;100347.33;178191;1256;46138;-81
2024/01/07 06:09:06;;;;;;;21.60;11.40;;;;;;;-1.59;93.90;100353.64;177444;1256;46126;-83
2024/01/07 06:13:09;;;;;;;13.60;9.90;;;;;;;-1.64;93.18;100366.67;178084;1256;46135;-82
2024/01/07 06:17:13;;;;;;;14.70;11.70;;;;;;;-1.73;92.98;100377.38;178090;1256;46034;-82
2024/01/07 06:21:16;;;;;;;20.50;12.30;;;;;;;-1.78;93.25;100384.11;178021;1256;58232;-82
2024/01/07 06:25:20;;;;;;;19.10;11.20;;;;;;;-1.82;92.66;100388.75;178762;1256;46063;-81
2024/01/07 06:29:23;;;;;;;17.10;10.10;;;;;;;-1.87;92.09;100389.05;178834;1256;46095;-81
2024/01/07 06:33:27;;;;;;;17.10;11.20;;;;;;;-1.91;92.05;100394.73;177608;1256;45975;-82
2024/01/07 06:37:30;;;;;;;14.80;9.70;;;;;;;-1.96;92.23;100396.77;177889;1256;46006;-82
2024/01/07 06:41:34;;;;;;;12.70;10.60;;;;;;;-1.95;92.71;100396.08;177069;1256;58508;-82
2024/01/07 06:45:37;;;;;;;13.00;10.30;;;;;;;-1.99;92.36;100403.12;177808;1256;46123;-82
2024/01/07 06:49:41;;;;;;;19.00;13.30;;;;;;;-2.00;91.98;100412.52;178554;1256;46075;-83
2024/01/07 06:53:44;;;;;;;15.80;10.00;;;;;;;-2.02;92.68;100418.33;178160;1256;46134;-82
2024/01/07 06:57:47;;;;;;;14.50;9.00;;;;;;;-1.99;92.53;100413.55;177906;1256;45898;-83
2024/01/07 07:01:51;;;;;;;16.00;11.40;;;;;;;-1.98;91.86;100414.39;177743;1256;59787;-82
2024/01/07 07:05:54;;;;;;;14.30;10.30;;;;;;;-1.92;92.18;100416.84;177930;1256;46027;-83
2024/01/07 07:09:58;;;;;;;13.40;9.70;;;;;;;-1.90;91.95;100421.98;178306;1256;46085;-80
2024/01/07 07:14:02;;;;;;;10.70;8.80;;;;;;;-1.86;92.48;100428.33;178558;1256;46102;-82
2024/01/07 07:18:05;;;;;;;11.30;9.30;;;;;;;-1.90;91.69;100430.16;177943;1258;46134;-82
2024/01/07 07:22:09;;;;;;;12.90;8.70;;;;;;;-1.92;91.78;100432.64;177625;1256;59347;-82
2024/01/07 07:26:12;;;;;;;10.00;7.90;;;;;;;-1.96;91.61;100445.46;177524;1256;46109;-82
2024/01/07 07:30:15;;;;;;;18.20;12.60;;;;;;;-1.93;92.98;100439.47;178365;1256;44169;-82
2024/01/07 07:34:19;;;;;;;16.30;10.70;;;;;;;-1.98;91.60;100448.62;178001;1256;46025;-82
2024/01/07 07:38:23;;;;;;;16.30;11.30;;;;;;;-1.97;92.35;100460.96;178274;1256;44288;-82
2024/01/07 07:42:26;;;;;;;22.40;12.40;;;;;;;-1.96;92.02;100462.84;178128;1256;58214;-82
2024/01/07 07:46:32;;;;;;;;;;;;;;;-1.98;90.70;100470.54;178495;1256;46550;-83
2024/01/07 07:50:36;;;;;;;14.00;9.80;;;;;;;-2.05;89.86;100476.80;179574;1256;45834;-82
2024/01/07 07:54:39;;;;;;;14.40;10.80;;;;;;;-2.06;91.39;100472.66;178286;1258;46083;-81
2024/01/07 07:58:42;;;;;;;13.40;10.80;;;;;;;-2.02;91.47;100475.35;178826;1257;46110;-81
2024/01/07 08:02:45;;;;;;;9.70;7.60;;;;;;;-1.96;90.81;100477.44;178958;1255;57747;-83
2024/01/07 08:06:49;;;;;;;9.10;7.10;;;;;;;-1.96;89.23;100485.77;177933;1256;46067;-82
2024/01/07 08:10:52;;;;;;;12.20;7.10;;;;;;;-1.94;88.38;100485.23;178096;1260;45960;-82
2024/01/07 08:14:55;;;;;;;10.30;6.40;;;;;;;-1.94;87.37;100491.14;178493;1256;46156;-82
2024/01/07 08:18:58;;;;;;;11.50;8.50;;;;;;;-1.97;86.56;100497.27;178954;1256;45793;-83
2024/01/07 08:23:02;;;;;;;12.00;8.00;;;;;;;-1.95;86.78;100498.63;178967;1259;59549;-82
2024/01/07 08:27:05;;;;;;;11.90;10.30;;;;;;;-1.95;86.34;100493.06;179935;1256;43908;-83
2024/01/07 08:31:08;;;;;;;14.70;9.40;;;;;;;-1.92;86.35;100496.11;179613;1256;44350;-83
2024/01/07 08:35:12;;;;;;;10.70;8.10;;;;;;;-1.84;86.90;100500.06;178459;1256;46135;-83
2024/01/07 08:39:17;;;;;;;12.00;7.20;;;;;;;-1.72;86.86;100500.61;178743;1256;44806;-83
2024/01/07 08:43:20;;;;;;;8.00;5.60;;;;;;;-1.67;85.49;100503.61;178797;1258;59738;-83
2024/01/07 08:47:24;;;;;;;7.70;5.70;;;;;;;-1.68;84.47;100507.64;179932;1257;46108;-83
2024/01/07 08:51:29;;;;;;;6.90;4.80;;;;;;;-1.80;82.00;100511.08;178322;1260;45114;-82
2024/01/07 08:55:32;;;;;;;7.80;5.40;;;;;;;-1.84;80.62;100509.45;178501;1256;46115;-82
2024/01/07 08:59:36;;;;;;;7.00;4.80;;;;;;;-1.81;80.41;100513.20;177420;1260;46000;-82
2024/01/07 09:03:39;;;;;;;4.30;3.60;;;;;;;-1.81;79.67;100516.86;178184;1256;59576;-81
2024/01/07 09:07:43;;;;;;;3.30;2.70;;;;;;;-1.77;79.97;100523.70;178902;1256;46397;-82
2024/01/07 09:11:46;;;;;;;4.70;3.60;;;;;;;-1.75;77.34;100534.42;180776;1257;44103;-82
2024/01/07 09:15:49;;;;;;;8.10;5.10;;;;;;;-1.84;74.85;100539.88;178960;1256;45996;-82
2024/01/07 09:19:52;;;;;;;7.70;3.60;;;;;;;-1.95;73.62;100542.61;178119;1259;46290;-82
2024/01/07 09:23:56;;;;;;;5.10;3.30;;;;;;;-2.03;73.05;100543.85;177250;1257;58064;-82
2024/01/07 09:27:59;;;;;;;3.40;3.10;;;;;;;-2.16;72.93;100549.73;178905;1257;44203;-82
2024/01/07 09:32:02;;;;;;;5.40;3.20;;;;;;;-2.32;71.36;100552.02;178911;1256;46107;-83
2024/01/07 09:36:07;;;;;;;5.60;4.30;;;;;;;-2.40;71.70;100551.17;178630;1257;46029;-81
2024/01/07 09:40:28;;;;;;;8.70;3.90;;;;;;;-2.46;72.89;100548.71;178765;1256;45937;-82
2024/01/07 09:44:31;;;;;;;6.20;4.50;;;;;;;-2.49;73.53;100549.12;178536;1256;58458;-81
2024/01/07 09:48:34;;;;;;;4.90;3.90;;;;;;;-2.45;72.29;100555.98;178915;1256;46010;-82
2024/01/07 09:52:47;;;;;;;6.00;3.30;;;;;;;-2.48;71.28;100553.77;178272;1259;46006;-83
2024/01/07 09:57:01;;;;;;;6.30;4.90;;;;;;;-2.45;71.67;100551.10;178026;1256;45964;-83
2024/01/07 10:01:06;;;;;;;6.10;4.10;;;;;;;-2.39;72.11;100552.53;178278;1256;45946;-82
2024/01/07 10:05:09;;;;;;;9.40;4.50;;;;;;;-2.38;73.13;100562.06;180428;1256;59587;-84
2024/01/07 10:09:13;;;;;;;6.90;5.40;;;;;;;-2.46;71.54;100557.38;179623;1256;44869;-82
2024/01/07 10:13:16;;;;;;;6.50;4.70;;;;;;;-2.40;71.95;100556.56;179613;1256;44309;-83
2024/01/07 10:17:19;;;;;;;6.50;4.70;;;;;;;-2.37;70.72;100559.61;178125;1258;46030;-82
2024/01/07 10:21:22;;;;;;;8.10;5.10;;;;;;;-2.36;73.47;100562.18;179616;1255;46056;-83
2024/01/07 10:25:26;;;;;;;8.60;4.60;;;;;;;-2.39;76.36;100559.83;178774;1256;58319;-83
2024/01/07 10:29:29;;;;;;;10.00;7.00;;;;;;;-2.37;78.28;100558.05;178399;1256;45937;-83
2024/01/07 10:33:35;;;;;;;8.50;5.40;;;;;;;-2.38;78.11;100563.27;179877;1256;45875;-83
2024/01/07 10:37:39;;;;;;;10.30;6.90;;;;;;;-2.42;78.86;100561.65;180088;1257;45912;-83
2024/01/07 10:41:46;;;;;;;8.10;5.30;;;;;;;-2.51;79.14;100567.05;178278;1256;49214;-83
2024/01/07 10:45:50;;;;;;;8.60;4.50;;;;;;;-2.49;79.73;100567.18;179041;1256;58223;-81
2024/01/07 10:49:56;;;;;;;11.40;7.00;;;;;;;-2.42;80.18;100571.54;178393;1256;45836;-82
2024/01/07 10:54:01;;;;;;;10.70;5.70;;;;;;;-2.44;80.07;100574.36;177805;1256;45540;-82
2024/01/07 10:58:05;;;;;;;13.00;6.80;;;;;;;-2.47;79.78;100578.93;178190;1256;44238;-82
2024/01/07 11:02:10;;;;;;;7.10;4.70;;;;;;;-2.51;79.83;100583.20;178317;1260;46087;-84
2024/01/07 11:06:45;;;;;;;9.90;7.20;;;;;;;-2.54;78.99;100580.50;177930;1256;59380;-84
2024/01/07 11:11:05;;;;;;;10.70;7.20;;;;;;;-2.57;78.82;100573.96;178091;1256;46063;-83
2024/01/07 11:15:08;;;;;;;11.70;6.20;;;;;;;-2.69;77.92;100574.77;177879;1258;46113;-84
2024/01/07 11:19:14;;;;;;;13.00;7.60;;;;;;;-2.85;77.80;100582.22;178676;1256;45963;-82
2024/01/07 11:23:28;;;;;;;;;;;;;;;-3.00;77.10;100578.36;178503;1256;46035;-84
2024/01/07 11:27:32;;;;;;;17.60;6.50;;;;;;;-3.05;75.76;100575.85;179119;1256;59027;-82
2024/01/07 11:31:50;;;;;;;12.40;6.80;;;;;;;-3.00;76.38;100571.75;178915;1256;44464;-84
2024/01/07 11:36:01;;;;;;;12.70;8.00;;;;;;;-2.97;77.53;100575.85;178739;1256;46039;-83
2024/01/07 11:40:06;;;;;;;9.90;6.20;;;;;;;-2.99;77.89;100573.84;180035;1256;44288;-83
2024/01/07 11:44:11;;;;;;;12.10;8.10;;;;;;;-3.08;77.01;100573.33;179623;1256;46092;-83
2024/01/07 11:48:15;;;;;;;13.10;8.80;;;;;;;-3.11;76.10;100568.53;178921;1256;59493;-82
2024/01/07 11:52:19;;;;;;;13.80;7.90;;;;;;;-3.10;75.97;100572.15;179572;1256;46206;-83
2024/01/07 11:56:22;;;;;;;14.40;8.90;;;;;;;-3.11;76.55;100572.52;178984;1256;44385;-82
2024/01/07 12:00:26;;;;;;;12.30;8.70;;;;;;;-3.17;75.34;100576.79;179308;1257;44194;-82
2024/01/07 12:04:29;;;;;;;15.30;9.40;;;;;;;-3.28;74.39;100588.13;179274;1256;45994;-82
2024/01/07 12:08:32;;;;;;;13.10;10.10;;;;;;;-3.35;74.01;100591.02;179182;1256;59090;-83
2024/01/07 12:12:36;;;;;;;18.90;10.50;;;;;;;-3.32;75.53;100580.23;178136;1258;46317;-82
2024/01/07 12:16:39;;;;;;;15.10;10.30;;;;;;;-3.32;76.99;100582.48;178572;1256;46017;-83
2024/01/07 12:20:54;;;;;;;15.80;9.80;;;;;;;-3.28;77.07;100583.79;178727;1256;45876;-83
2024/01/07 12:25:03;;;;;;;14.90;10.30;;;;;;;-3.28;77.14;100583.61;179853;1256;46109;-82
2024/01/07 12:29:07;;;;;;;19.20;12.20;;;;;;;-3.30;77.34;100585.71;179038;1256;60698;-81
2024/01/07 12:33:10;;;;;;;14.50;10.10;;;;;;;-3.28;76.92;100589.34;178917;1256;44701;-81
2024/01/07 12:37:14;;;;;;;19.10;11.30;;;;;;;-3.23;78.44;100587.34;179892;1256;46018;-80
2024/01/07 12:41:17;;;;;;;24.00;13.40;;;;;;;-3.25;78.16;100591.36;179194;1259;44569;-81
2024/01/07 12:45:21;;;;;;;16.10;10.60;;;;;;;-3.27;78.02;100599.37;179135;1256;46053;-80
2024/01/07 12:49:24;;;;;;;14.10;10.10;;;;;;;-3.27;77.65;100602.14;178422;1260;58517;-80
2024/01/07 12:53:28;;;;;;;15.00;10.10;;;;;;;-3.32;78.38;100608.48;178036;1256;45988;-81
2024/01/07 12:57:32;;;;;;;17.30;10.50;;;;;;;-3.33;78.40;100607.46;178669;1256;46053;-81
2024/01/07 13:01:36;;;;;;;24.50;14.00;;;;;;;-3.32;78.41;100618.38;178996;1260;45814;-81
2024/01/07 13:05:41;;;;;;;10.40;8.70;;;;;;;-3.36;77.49;100621.55;178415;1256;46031;-81
2024/01/07 13:09:45;;;;;;;14.50;10.30;;;;;;;-3.44;76.98;100620.50;179346;1255;60559;-80
2024/01/07 13:13:48;;;;;;;15.70;9.80;;;;;;;-3.47;77.76;100620.55;178825;1256;46120;-82
2024/01/07 13:17:51;;;;;;;18.60;10.20;;;;;;;-3.46;78.68;100620.19;178113;1256;45988;-81
2024/01/07 13:22:01;;;;;;;14.40;8.70;;;;;;;-3.42;78.51;100625.86;180428;1257;44080;-83
2024/01/07 13:26:06;;;;;;;17.10;9.00;;;;;;;-3.44;78.12;100630.55;180009;1261;45961;-83
2024/01/07 13:30:10;;;;;;;16.30;10.30;;;;;;;-3.40;79.08;100629.27;179705;1258;58219;-81
2024/01/07 13:34:14;;;;;;;24.60;11.80;;;;;;;-3.36;79.78;100625.02;179790;1258;46008;-81
2024/01/07 13:38:17;;;;;;;19.30;10.20;;;;;;;-3.28;80.12;100631.48;177694;1259;46024;-81
2024/01/07 13:42:20;;;;;;;16.60;11.10;;;;;;;-3.31;79.47;100638.81;178209;1260;46010;-82
2024/01/07 13:46:25;;;;;;;18.30;13.20;;;;;;;-3.28;79.18;100635.14;180010;1257;45974;-81
2024/01/07 13:50:29;;;;;;;21.70;11.10;;;;;;;-3.28;79.20;100634.09;179569;1257;58215;-82
2024/01/07 13:54:33;;;;;;;23.80;13.00;;;;;;;-3.27;79.43;100639.80;178844;1259;46121;-82
2024/01/07 13:58:36;;;;;;;21.70;12.40;;;;;;;-3.22;79.60;100638.14;179126;1257;46104;-82
2024/01/07 14:02:40;;;;;;;21.60;12.60;;;;;;;-3.25;77.99;100649.13;179881;1259;44191;-81
2024/01/07 14:06:45;;;;;;;26.90;12.70;;;;;;;-3.36;76.35;100649.31;179697;1257;43946;-82
2024/01/07 14:10:48;;;;;;;19.00;12.60;;;;;;;-3.39;76.71;100655.96;178930;1260;58968;-81
2024/01/07 14:14:51;;;;;;;17.40;11.70;;;;;;;-3.44;77.40;100651.90;178842;1256;46068;-81
2024/01/07 14:18:54;;;;;;;18.40;11.90;;;;;;;-3.47;77.68;100651.25;178923;1257;46110;-81
2024/01/07 14:22:58;;;;;;;21.60;11.80;;;;;;;-3.46;78.17;100654.16;178736;1256;46106;-82
2024/01/07 14:27:02;;;;;;;22.00;13.40;;;;;;;-3.47;78.75;100655.21;180070;1256;44068;-81
2024/01/07 14:31:06;;;;;;;17.60;11.00;;;;;;;-3.52;78.07;100662.96;178937;1256;60725;-80
2024/01/07 14:35:13;;;;;;;17.70;9.90;;;;;;;-3.59;75.92;100674.17;177837;1256;46085;-82
2024/01/07 14:39:16;;;;;;;13.50;7.50;;;;;;;-3.75;73.37;100680.66;179446;1256;46017;-82
2024/01/07 14:43:19;;;;;;;21.40;13.40;;;;;;;-3.85;73.58;100678.92;178792;1256;45943;-82
2024/01/07 14:47:22;;;;;;;19.80;14.30;;;;;;;-3.93;73.97;100688.23;178894;1256;45170;-82
2024/01/07 14:51:26;;;;;;;13.70;9.20;;;;;;;-3.97;74.87;100689.34;178205;1256;60444;-81
2024/01/07 14:55:29;;;;;;;18.30;9.60;;;;;;;-4.03;75.07;100695.48;178847;1256;46110;-81
2024/01/07 14:59:32;;;;;;;18.80;10.30;;;;;;;-4.12;73.98;100697.00;178689;1256;46110;-82
2024/01/07 15:03:36;;;;;;;19.50;12.80;;;;;;;-4.19;74.18;100701.43;179121;1260;45940;-81
2024/01/07 15:07:39;;;;;;;22.10;11.40;;;;;;;-4.24;74.66;100709.13;179123;1256;46085;-82
2024/01/07 15:11:44;;;;;;;25.10;12.90;;;;;;;-4.31;75.15;100715.98;179801;1256;59273;-82
2024/01/07 15:15:48;;;;;;;22.20;14.00;;;;;;;-4.33;75.91;100713.39;178829;1256;46098;-82
2024/01/07 15:19:52;;;;;;;18.00;14.20;;;;;;;-4.36;77.70;100717.76;178686;1257;46020;-82
2024/01/07 15:23:55;;;;;;;20.50;12.30;;;;;;;-4.35;76.63;100722.77;178123;1256;45982;-83
2024/01/07 15:27:58;;;;;;;19.70;12.90;;;;;;;-4.36;76.55;100728.49;179004;1258;45988;-83
2024/01/07 15:32:01;;;;;;;19.10;11.00;;;;;;;-4.35;76.73;100723.63;178771;1256;58683;-82
2024/01/07 15:36:06;;;;;;;16.90;10.90;;;;;;;-4.35;77.11;100729.17;178323;1260;46208;-83
2024/01/07 15:40:10;;;;;;;18.10;10.30;;;;;;;-4.38;76.83;100726.27;178067;1256;44849;-82
2024/01/07 15:44:13;;;;;;;21.00;10.00;;;;;;;-4.43;77.24;100732.21;178488;1259;46309;-83
2024/01/07 15:48:16;;;;;;;23.70;13.20;;;;;;;-4.44;76.63;100738.48;179195;1256;45969;-83
2024/01/07 15:52:20;;;;;;;22.40;13.40;;;;;;;-4.38;77.86;100741.52;177787;1256;57906;-80
2024/01/07 15:56:24;;;;;;;21.70;10.90;;;;;;;-4.36;77.70;100745.46;177812;1256;46217;-82
2024/01/07 16:00:27;;;;;;;19.40;11.40;;;;;;;-4.36;77.62;100744.95;178442;1256;45901;-81
2024/01/07 16:04:31;;;;;;;21.10;12.50;;;;;;;-4.37;77.44;100749.80;178365;1256;46016;-83
2024/01/07 16:08:34;;;;;;;19.10;10.50;;;;;;;-4.40;77.72;100750.02;178678;1256;46076;-82
2024/01/07 16:12:37;;;;;;;22.10;12.90;;;;;;;-4.40;78.36;100754.70;179298;1256;58217;-83
2024/01/07 16:16:41;;;;;;;20.50;13.70;;;;;;;-4.40;77.38;100761.80;179329;1256;45863;-83
2024/01/07 16:20:44;;;;;;;20.20;10.90;;;;;;;-4.39;76.46;100766.80;179013;1256;45953;-82
2024/01/07 16:24:48;;;;;;;19.60;9.40;;;;;;;-4.37;76.62;100769.90;178473;1260;46222;-82
2024/01/07 16:28:52;;;;;;;24.50;13.80;;;;;;;-4.42;75.77;100775.50;179029;1256;44288;-81
2024/01/07 16:32:56;;;;;;;36.20;14.30;;;;;;;-4.48;74.98;100780.92;178242;1256;59216;-81
2024/01/07 16:36:59;;;;;;;24.90;13.00;;;;;;;-4.50;75.09;100781.65;178377;1260;46121;-82
2024/01/07 16:41:04;;;;;;;24.30;14.20;;;;;;;-4.57;75.26;100787.95;177826;1256;45987;-82
2024/01/07 16:45:10;;;;;;;24.20;13.10;;;;;;;-4.57;76.29;100793.67;179334;1256;45996;-82
2024/01/07 16:49:13;;;;;;;20.80;11.80;;;;;;;-4.52;75.91;100798.30;179063;1256;45900;-83
2024/01/07 16:53:36;;;;;;;25.60;13.70;;;;;;;-4.48;75.57;100802.05;179360;1256;59115;-83
2024/01/07 16:57:39;;;;;;;22.50;12.00;;;;;;;-4.49;73.55;100815.23;178704;1256;46004;-83
2024/01/07 17:01:44;;;;;;;20.30;13.20;;;;;;;-4.52;73.39;100815.60;178237;1256;44056;-82
2024/01/07 17:05:47;;;;;;;24.70;14.80;;;;;;;-4.52;75.23;100817.69;178938;1256;45940;-82
2024/01/07 17:09:51;;;;;;;23.60;12.50;;;;;;;-4.58;74.00;100820.86;178055;1260;46500;-82
2024/01/07 17:13:54;;;;;;;22.50;11.30;;;;;;;-4.63;73.80;100826.27;179624;1256;164971;-83
2024/01/07 17:17:58;;;;;;;15.30;10.20;;;;;;;-4.63;73.92;100833.54;178425;1256;46124;-83
2024/01/07 17:22:01;;;;;;;17.90;11.50;;;;;;;-4.61;72.41;100843.91;177954;1256;46039;-83
2024/01/07 17:26:04;;;;;;;18.00;12.40;;;;;;;-4.64;71.91;100847.73;178593;1257;45977;-82
2024/01/07 17:30:08;;;;;;;25.10;13.00;;;;;;;-4.72;72.95;100850.59;179797;1256;46256;-81
2024/01/07 17:34:11;;;;;;;23.90;14.50;;;;;;;-4.81;72.88;100856.55;180645;1260;59726;-79
2024/01/07 17:38:18;;;;;;;20.90;12.10;;;;;;;-4.89;71.72;100866.83;180266;1256;44382;-80
2024/01/07 17:42:23;;;;;;;16.10;12.50;;;;;;;-4.97;73.38;100865.70;180898;1260;44114;-81
2024/01/07 17:46:27;;;;;;;15.00;9.70;;;;;;;-5.01;72.64;100874.38;179207;1256;44431;-81
2024/01/07 17:50:30;;;;;;;25.60;12.40;;;;;;;-5.02;72.36;100880.61;177833;1260;46113;-82
2024/01/07 17:54:36;;;;;;;20.70;13.00;;;;;;;-4.98;73.36;100886.63;177492;1256;57509;-82
2024/01/07 17:58:39;;;;;;;24.00;13.10;;;;;;;-4.95;72.65;100889.55;178899;1258;45968;-82
2024/01/07 18:02:43;;;;;;;20.60;15.00;;;;;;;-5.00;72.90;100893.05;178629;1260;46005;-80
2024/01/07 18:06:46;;;;;;;24.10;11.90;;;;;;;-5.06;73.69;100896.73;180003;1257;46092;-81
2024/01/07 18:10:49;;;;;;;23.50;13.20;;;;;;;-5.09;74.81;100905.73;180380;1260;46420;-80
2024/01/07 18:14:54;;;;;;;29.80;13.40;;;;;;;-5.18;73.27;100907.02;178273;1260;59931;-81
2024/01/07 18:18:58;;;;;;;20.20;13.40;;;;;;;-5.20;72.82;100906.50;179938;1258;46156;-80
2024/01/07 18:23:01;;;;;;;25.40;12.60;;;;;;;-5.19;73.54;100913.26;179952;1257;46031;-80